Time;durP1;ratioP1;P1;durP2;ratioP2;P2;SDS_P1;SDS_P2;PMS_P1;PMS_P2;Temp;Humidity;BMP_temperature;BMP_pressure;BME280_temperature;BME280_humidity;BME280_pressure;Samples;Min_cycle;Max_cycle;Signal;HPM_P1;HPM_P2
2021/05/03 00:00:42;;;;;;;0.30;0.20;;;;;;;;;;5056830;28;20191;-64
2021/05/03 00:03:09;;;;;;;1.37;0.20;;;;;;;;;;5049685;28;20210;-64
2021/05/03 00:05:37;;;;;;;0.30;0.30;;;;;;;;;;5056667;28;20561;-64
2021/05/03 00:08:04;;;;;;;0.20;0.20;;;;;;;;;;5057061;28;20525;-64
2021/05/03 00:10:30;;;;;;;0.30;0.30;;;;;;;;;;5054381;28;20183;-63
2021/05/03 00:12:56;;;;;;;0.00;0.00;;;;;;;;;;5051319;28;20788;-64
2021/05/03 00:15:23;;;;;;;0.40;0.30;;;;;;;;;;5057926;28;20272;-63
2021/05/03 00:17:49;;;;;;;0.13;0.07;;;;;;;;;;5050551;28;20202;-63
2021/05/03 00:20:16;;;;;;;0.00;0.00;;;;;;;;;;5052551;28;20207;-63
2021/05/03 00:22:43;;;;;;;0.30;0.30;;;;;;;;;;5056515;28;20423;-64
2021/05/03 00:25:10;;;;;;;0.00;0.00;;;;;;;;;;5057677;28;20199;-63
2021/05/03 00:27:38;;;;;;;0.47;0.37;;;;;;;;;;5053143;28;20198;-63
2021/05/03 00:30:05;;;;;;;0.10;0.10;;;;;;;;;;5045477;28;20458;-63
2021/05/03 00:32:32;;;;;;;0.00;0.00;;;;;;;;;;5056782;28;20198;-64
2021/05/03 00:34:58;;;;;;;0.30;0.20;;;;;;;;;;5058036;28;20183;-64
2021/05/03 00:37:25;;;;;;;0.10;0.10;;;;;;;;;;5056822;28;20232;-63
2021/05/03 00:39:53;;;;;;;0.30;0.30;;;;;;;;;;5056686;28;20226;-63
2021/05/03 00:42:19;;;;;;;0.97;0.87;;;;;;;;;;5056317;28;20187;-63
2021/05/03 00:44:46;;;;;;;1.30;0.73;;;;;;;;;;5049525;28;20199;-64
2021/05/03 00:47:13;;;;;;;0.20;0.20;;;;;;;;;;5055232;28;20255;-63
2021/05/03 00:49:41;;;;;;;0.27;0.27;;;;;;;;;;5050995;28;20290;-63
2021/05/03 00:52:07;;;;;;;0.47;0.47;;;;;;;;;;5056630;28;20197;-63
2021/05/03 00:54:33;;;;;;;0.20;0.20;;;;;;;;;;5056138;28;20191;-63
2021/05/03 00:57:00;;;;;;;0.27;0.27;;;;;;;;;;5058963;28;20555;-63
2021/05/03 00:59:27;;;;;;;0.10;0.10;;;;;;;;;;5061416;28;20243;-64
2021/05/03 01:01:53;;;;;;;0.30;0.30;;;;;;;;;;5050153;28;20531;-63
2021/05/03 01:04:20;;;;;;;0.00;0.00;;;;;;;;;;5055906;28;20187;-63
2021/05/03 01:06:47;;;;;;;0.30;0.30;;;;;;;;;;5049506;28;20482;-64
2021/05/03 01:09:14;;;;;;;0.43;0.43;;;;;;;;;;5056194;28;20194;-64
2021/05/03 01:11:40;;;;;;;0.10;0.10;;;;;;;;;;5050237;28;20553;-64
2021/05/03 01:14:07;;;;;;;0.40;0.40;;;;;;;;;;5054421;28;20195;-63
2021/05/03 01:16:34;;;;;;;0.20;0.20;;;;;;;;;;5055996;28;20626;-63
2021/05/03 01:19:00;;;;;;;0.00;0.00;;;;;;;;;;5055446;28;20215;-64
2021/05/03 01:21:27;;;;;;;1.37;0.30;;;;;;;;;;5056421;28;20748;-63
2021/05/03 01:23:54;;;;;;;0.17;0.17;;;;;;;;;;5048751;28;20994;-63
2021/05/03 01:26:21;;;;;;;0.07;0.07;;;;;;;;;;5048915;28;20190;-63
2021/05/03 01:28:48;;;;;;;0.80;0.80;;;;;;;;;;5042424;28;20855;-63
2021/05/03 01:31:15;;;;;;;0.00;0.00;;;;;;;;;;5056275;28;20278;-63
2021/05/03 01:33:43;;;;;;;1.53;0.90;;;;;;;;;;5048802;28;20266;-63
2021/05/03 01:36:10;;;;;;;0.20;0.20;;;;;;;;;;5049717;28;20400;-63
2021/05/03 01:38:36;;;;;;;0.37;0.37;;;;;;;;;;5055951;28;20302;-64
2021/05/03 01:41:03;;;;;;;0.83;0.30;;;;;;;;;;5036346;28;20258;-64
2021/05/03 01:43:30;;;;;;;0.00;0.00;;;;;;;;;;5043271;28;20584;-63
2021/05/03 01:45:58;;;;;;;0.00;0.00;;;;;;;;;;5051746;28;20697;-63
2021/05/03 01:48:28;;;;;;;0.37;0.30;;;;;;;;;;5042963;28;20180;-63
2021/05/03 01:50:55;;;;;;;0.00;0.00;;;;;;;;;;5036630;28;20645;-64
2021/05/03 01:53:23;;;;;;;0.00;0.00;;;;;;;;;;5055587;28;20631;-63
2021/05/03 01:55:53;;;;;;;0.00;0.00;;;;;;;;;;5055246;28;20682;-63
2021/05/03 01:58:20;;;;;;;0.00;0.00;;;;;;;;;;5055502;28;20187;-64
2021/05/03 02:00:46;;;;;;;0.20;0.20;;;;;;;;;;5055143;28;20318;-64
2021/05/03 02:03:26;;;;;;;0.10;0.10;;;;;;;;;;5052029;28;20444;-64
2021/05/03 02:05:53;;;;;;;1.60;1.23;;;;;;;;;;5051523;28;20545;-64
2021/05/03 02:08:20;;;;;;;0.93;0.30;;;;;;;;;;5059200;28;20191;-64
2021/05/03 02:10:47;;;;;;;2.10;0.93;;;;;;;;;;5052554;28;20181;-64
2021/05/03 02:13:14;;;;;;;0.00;0.00;;;;;;;;;;5066229;28;20182;-64
2021/05/03 02:15:41;;;;;;;0.00;0.00;;;;;;;;;;5057654;28;20475;-65
2021/05/03 02:18:07;;;;;;;0.03;0.03;;;;;;;;;;5056629;28;20183;-65
2021/05/03 02:20:34;;;;;;;0.10;0.10;;;;;;;;;;5055969;28;20210;-64
2021/05/03 02:23:01;;;;;;;0.10;0.10;;;;;;;;;;5057708;28;20171;-64
2021/05/03 02:25:27;;;;;;;0.43;0.43;;;;;;;;;;5058255;28;20196;-65
2021/05/03 02:27:54;;;;;;;0.10;0.10;;;;;;;;;;5052176;28;20187;-64
2021/05/03 02:30:20;;;;;;;0.00;0.00;;;;;;;;;;5054100;28;20659;-64
2021/05/03 02:32:47;;;;;;;0.00;0.00;;;;;;;;;;5052620;28;20218;-64
2021/05/03 02:35:16;;;;;;;0.03;0.03;;;;;;;;;;5062352;28;20250;-64
2021/05/03 02:37:48;;;;;;;0.93;0.93;;;;;;;;;;5047458;28;20212;-64
2021/05/03 02:40:16;;;;;;;0.40;0.40;;;;;;;;;;5058366;28;20289;-64
2021/05/03 02:42:45;;;;;;;0.10;0.10;;;;;;;;;;5061208;28;20183;-64
2021/05/03 02:45:12;;;;;;;0.10;0.10;;;;;;;;;;5055613;28;20449;-64
2021/05/03 02:47:38;;;;;;;0.20;0.20;;;;;;;;;;5046021;28;20270;-64
2021/05/03 02:50:05;;;;;;;0.00;0.00;;;;;;;;;;5054230;28;20698;-64
2021/05/03 02:52:31;;;;;;;0.10;0.10;;;;;;;;;;5051573;28;20800;-64
2021/05/03 02:54:58;;;;;;;0.13;0.13;;;;;;;;;;5051474;28;20269;-64
2021/05/03 02:57:24;;;;;;;0.20;0.20;;;;;;;;;;5058510;28;20191;-64
2021/05/03 02:59:51;;;;;;;0.00;0.00;;;;;;;;;;5049616;28;20242;-63
2021/05/03 03:02:17;;;;;;;1.50;1.07;;;;;;;;;;5052021;28;20187;-63
2021/05/03 03:04:44;;;;;;;0.97;0.30;;;;;;;;;;5055180;28;20221;-63
2021/05/03 03:07:10;;;;;;;0.63;0.47;;;;;;;;;;5052001;28;20640;-64
2021/05/03 03:09:37;;;;;;;0.73;0.37;;;;;;;;;;5058168;28;20863;-63
2021/05/03 03:12:05;;;;;;;1.43;1.00;;;;;;;;;;5057902;28;20268;-63
2021/05/03 03:14:31;;;;;;;0.23;0.20;;;;;;;;;;5056042;28;20218;-63
2021/05/03 03:16:58;;;;;;;1.60;0.87;;;;;;;;;;5049224;28;20211;-63
2021/05/03 03:19:24;;;;;;;4.63;0.50;;;;;;;;;;5045003;28;20687;-64
2021/05/03 03:21:51;;;;;;;0.63;0.40;;;;;;;;;;5045536;28;21109;-63
2021/05/03 03:24:18;;;;;;;0.00;0.00;;;;;;;;;;5057817;28;20470;-63
2021/05/03 03:26:48;;;;;;;0.10;0.10;;;;;;;;;;5057937;28;20183;-63
2021/05/03 03:29:14;;;;;;;0.00;0.00;;;;;;;;;;5049207;28;20272;-63
2021/05/03 03:31:41;;;;;;;0.67;0.17;;;;;;;;;;5052122;28;20217;-64
2021/05/03 03:34:07;;;;;;;0.20;0.20;;;;;;;;;;5056975;28;20201;-64
2021/05/03 03:36:34;;;;;;;0.10;0.10;;;;;;;;;;5056275;28;20198;-64
2021/05/03 03:39:01;;;;;;;0.00;0.00;;;;;;;;;;5057088;28;20206;-64
2021/05/03 03:41:28;;;;;;;0.30;0.30;;;;;;;;;;5056813;28;20587;-64
2021/05/03 03:43:55;;;;;;;0.00;0.00;;;;;;;;;;5051121;28;20190;-64
2021/05/03 03:46:22;;;;;;;0.37;0.37;;;;;;;;;;5057111;28;20702;-64
2021/05/03 03:48:49;;;;;;;0.73;0.73;;;;;;;;;;5056846;28;20218;-64
2021/05/03 03:51:16;;;;;;;0.00;0.00;;;;;;;;;;5044397;28;20257;-63
2021/05/03 03:53:42;;;;;;;0.20;0.20;;;;;;;;;;5057400;28;20192;-63
2021/05/03 03:56:12;;;;;;;0.20;0.20;;;;;;;;;;5056699;28;20198;-64
2021/05/03 03:58:39;;;;;;;0.00;0.00;;;;;;;;;;5056060;28;20257;-64
2021/05/03 04:01:06;;;;;;;0.00;0.00;;;;;;;;;;5043379;28;20196;-64
2021/05/03 04:03:32;;;;;;;0.10;0.10;;;;;;;;;;5050060;28;20399;-64
2021/05/03 04:24:49;;;;;;;0.00;0.00;;;;;;;;;;5056754;28;20202;-64
2021/05/03 04:27:16;;;;;;;0.00;0.00;;;;;;;;;;5056441;28;20179;-64
2021/05/03 04:29:42;;;;;;;0.47;0.43;;;;;;;;;;5056109;28;20190;-63
2021/05/03 04:32:08;;;;;;;0.00;0.00;;;;;;;;;;5056602;28;20670;-64
2021/05/03 04:34:35;;;;;;;0.00;0.00;;;;;;;;;;5081742;28;20193;-63
2021/05/03 04:37:01;;;;;;;0.00;0.00;;;;;;;;;;5061904;28;20178;-64
2021/05/03 04:39:28;;;;;;;0.20;0.20;;;;;;;;;;5049719;28;20302;-64
2021/05/03 04:41:54;;;;;;;1.00;0.63;;;;;;;;;;5061713;28;20183;-64
2021/05/03 04:44:21;;;;;;;0.60;0.23;;;;;;;;;;5055548;28;20289;-64
2021/05/03 04:46:47;;;;;;;1.27;0.97;;;;;;;;;;5056291;28;20194;-64
2021/05/03 04:49:14;;;;;;;0.00;0.00;;;;;;;;;;5055436;28;20204;-64
2021/05/03 04:51:40;;;;;;;0.00;0.00;;;;;;;;;;5050257;28;20274;-64
2021/05/03 04:54:07;;;;;;;0.00;0.00;;;;;;;;;;5055496;28;20736;-64
2021/05/03 04:56:33;;;;;;;0.30;0.30;;;;;;;;;;5055338;28;20197;-64
2021/05/03 04:58:59;;;;;;;0.17;0.10;;;;;;;;;;5055137;28;20234;-64
2021/05/03 05:01:26;;;;;;;0.00;0.00;;;;;;;;;;5054060;28;20332;-64
2021/05/03 05:03:52;;;;;;;0.27;0.20;;;;;;;;;;5054392;28;20194;-63
2021/05/03 05:06:19;;;;;;;0.10;0.10;;;;;;;;;;5054923;28;20225;-64
2021/05/03 05:08:45;;;;;;;0.00;0.00;;;;;;;;;;5048102;28;20185;-63
2021/05/03 05:11:12;;;;;;;0.00;0.00;;;;;;;;;;5036486;28;20191;-64
2021/05/03 05:13:38;;;;;;;0.20;0.20;;;;;;;;;;5055525;28;20255;-64
2021/05/03 05:16:06;;;;;;;0.30;0.30;;;;;;;;;;5054188;28;20210;-64
2021/05/03 05:18:32;;;;;;;0.03;0.03;;;;;;;;;;5053442;28;20269;-64
2021/05/03 05:20:59;;;;;;;0.00;0.00;;;;;;;;;;5046996;28;20493;-64
2021/05/03 05:23:26;;;;;;;0.00;0.00;;;;;;;;;;5056075;28;20187;-64
2021/05/03 05:25:52;;;;;;;0.00;0.00;;;;;;;;;;5055973;28;20425;-64
2021/05/03 05:28:19;;;;;;;0.20;0.20;;;;;;;;;;5056042;28;20194;-63
2021/05/03 05:30:45;;;;;;;0.00;0.00;;;;;;;;;;5053518;28;20210;-64
2021/05/03 05:33:11;;;;;;;0.00;0.00;;;;;;;;;;5045190;28;20191;-64
2021/05/03 05:35:38;;;;;;;0.10;0.10;;;;;;;;;;5049492;28;20680;-64
2021/05/03 05:38:04;;;;;;;0.43;0.20;;;;;;;;;;5055472;28;20656;-64
2021/05/03 05:40:31;;;;;;;0.00;0.00;;;;;;;;;;5049266;28;20219;-64
2021/05/03 05:42:57;;;;;;;0.00;0.00;;;;;;;;;;5049871;28;20818;-64
2021/05/03 05:45:24;;;;;;;0.00;0.00;;;;;;;;;;5055107;28;20738;-64
2021/05/03 05:47:50;;;;;;;0.20;0.20;;;;;;;;;;5059985;28;20187;-64
2021/05/03 05:50:17;;;;;;;0.10;0.10;;;;;;;;;;5059251;28;20197;-64
2021/05/03 05:52:43;;;;;;;0.00;0.00;;;;;;;;;;5057881;28;20599;-64
2021/05/03 05:55:10;;;;;;;0.13;0.10;;;;;;;;;;5052591;28;20216;-64
2021/05/03 05:57:36;;;;;;;1.07;0.20;;;;;;;;;;5060797;28;20187;-63
2021/05/03 06:00:04;;;;;;;0.30;0.13;;;;;;;;;;5052396;28;20246;-63
2021/05/03 06:02:30;;;;;;;0.10;0.10;;;;;;;;;;5050206;28;20575;-63
2021/05/03 06:04:56;;;;;;;0.13;0.13;;;;;;;;;;5048782;28;20485;-64
2021/05/03 06:07:23;;;;;;;0.40;0.40;;;;;;;;;;5056436;28;20222;-63
2021/05/03 06:09:49;;;;;;;0.00;0.00;;;;;;;;;;5051374;28;20191;-63
2021/05/03 06:12:16;;;;;;;0.00;0.00;;;;;;;;;;5060278;28;20642;-64
2021/05/03 06:14:42;;;;;;;3.23;0.73;;;;;;;;;;5053495;28;20715;-64
2021/05/03 06:17:09;;;;;;;0.07;0.07;;;;;;;;;;5061352;28;20207;-64
2021/05/03 06:19:35;;;;;;;0.10;0.10;;;;;;;;;;5059521;28;20259;-64
2021/05/03 06:22:02;;;;;;;0.00;0.00;;;;;;;;;;5051145;28;20252;-64
2021/05/03 06:24:28;;;;;;;0.00;0.00;;;;;;;;;;5058625;28;20186;-63
2021/05/03 06:26:55;;;;;;;0.00;0.00;;;;;;;;;;5057021;28;20210;-64
2021/05/03 06:29:21;;;;;;;0.00;0.00;;;;;;;;;;5057801;28;20197;-64
2021/05/03 06:31:48;;;;;;;0.33;0.20;;;;;;;;;;5054046;28;20221;-64
2021/05/03 06:34:14;;;;;;;0.20;0.20;;;;;;;;;;5060419;28;20909;-63
2021/05/03 06:36:41;;;;;;;0.00;0.00;;;;;;;;;;5066244;28;20183;-64
2021/05/03 06:39:07;;;;;;;0.03;0.03;;;;;;;;;;5057251;28;20210;-64
2021/05/03 06:41:34;;;;;;;0.00;0.00;;;;;;;;;;5058800;28;20217;-64
2021/05/03 06:44:00;;;;;;;0.30;0.30;;;;;;;;;;5059409;28;20217;-63
2021/05/03 06:46:27;;;;;;;0.37;0.30;;;;;;;;;;5052143;28;20198;-64
2021/05/03 06:48:53;;;;;;;0.00;0.00;;;;;;;;;;5058124;28;20285;-64
2021/05/03 06:51:20;;;;;;;0.00;0.00;;;;;;;;;;5058567;28;20226;-64
2021/05/03 06:53:46;;;;;;;0.00;0.00;;;;;;;;;;5058160;28;20252;-64
2021/05/03 06:56:13;;;;;;;0.00;0.00;;;;;;;;;;5058985;28;20201;-64
2021/05/03 06:58:39;;;;;;;0.00;0.00;;;;;;;;;;5051564;28;20655;-64
2021/05/03 07:01:06;;;;;;;0.00;0.00;;;;;;;;;;5049718;28;20511;-63
2021/05/03 07:03:32;;;;;;;0.17;0.17;;;;;;;;;;5058271;28;20556;-64
2021/05/03 07:05:59;;;;;;;0.00;0.00;;;;;;;;;;5057881;28;20191;-63
2021/05/03 07:08:26;;;;;;;0.00;0.00;;;;;;;;;;5051842;28;20660;-63
2021/05/03 07:10:53;;;;;;;0.00;0.00;;;;;;;;;;5057714;28;20197;-63
2021/05/03 07:13:20;;;;;;;0.13;0.10;;;;;;;;;;5051106;28;20197;-64
2021/05/03 07:15:47;;;;;;;0.00;0.00;;;;;;;;;;5057117;28;20593;-63
2021/05/03 07:18:13;;;;;;;0.00;0.00;;;;;;;;;;5056211;28;20224;-63
2021/05/03 07:20:40;;;;;;;0.00;0.00;;;;;;;;;;5059977;28;20344;-64
2021/05/03 07:23:08;;;;;;;0.20;0.20;;;;;;;;;;5050922;28;20246;-64
2021/05/03 07:25:35;;;;;;;0.00;0.00;;;;;;;;;;5057242;28;20199;-64
2021/05/03 07:28:01;;;;;;;0.20;0.20;;;;;;;;;;5051224;28;20190;-63
2021/05/03 07:30:28;;;;;;;0.00;0.00;;;;;;;;;;5056600;28;20201;-64
2021/05/03 07:32:54;;;;;;;0.00;0.00;;;;;;;;;;5050248;28;20227;-64
2021/05/03 07:35:20;;;;;;;0.00;0.00;;;;;;;;;;5049345;28;20198;-63
2021/05/03 07:37:47;;;;;;;0.00;0.00;;;;;;;;;;5057045;28;20193;-64
2021/05/03 07:40:14;;;;;;;0.00;0.00;;;;;;;;;;5051031;28;20551;-64
2021/05/03 07:42:41;;;;;;;0.00;0.00;;;;;;;;;;5056820;28;20214;-63
2021/05/03 07:45:08;;;;;;;0.00;0.00;;;;;;;;;;5052145;28;20191;-64
2021/05/03 07:47:35;;;;;;;0.00;0.00;;;;;;;;;;5044586;28;20937;-64
2021/05/03 07:50:01;;;;;;;0.00;0.00;;;;;;;;;;5055439;28;20274;-64
2021/05/03 07:52:28;;;;;;;0.00;0.00;;;;;;;;;;5055983;28;20228;-63
2021/05/03 07:54:54;;;;;;;0.63;0.43;;;;;;;;;;5060705;28;20499;-63
2021/05/03 07:57:21;;;;;;;0.00;0.00;;;;;;;;;;5050263;28;20198;-63
2021/05/03 07:59:47;;;;;;;0.00;0.00;;;;;;;;;;5049945;28;20825;-64
2021/05/03 08:02:15;;;;;;;0.20;0.20;;;;;;;;;;5056256;28;20204;-63
2021/05/03 08:04:41;;;;;;;0.00;0.00;;;;;;;;;;5049520;28;20197;-64
2021/05/03 08:07:08;;;;;;;0.00;0.00;;;;;;;;;;5054068;28;20200;-63
2021/05/03 08:09:34;;;;;;;0.00;0.00;;;;;;;;;;5056455;28;20579;-63
2021/05/03 08:12:01;;;;;;;0.00;0.00;;;;;;;;;;5055589;28;20244;-64
2021/05/03 08:14:27;;;;;;;0.00;0.00;;;;;;;;;;5064452;28;20243;-64
2021/05/03 08:16:59;;;;;;;0.53;0.53;;;;;;;;;;5053000;28;20220;-64
2021/05/03 08:19:26;;;;;;;0.00;0.00;;;;;;;;;;5043525;28;20213;-64
2021/05/03 08:21:54;;;;;;;0.10;0.10;;;;;;;;;;5047552;28;20945;-63
2021/05/03 08:24:20;;;;;;;0.00;0.00;;;;;;;;;;5048712;28;20259;-63
2021/05/03 08:26:47;;;;;;;0.00;0.00;;;;;;;;;;5054311;28;20212;-63
2021/05/03 08:29:13;;;;;;;0.00;0.00;;;;;;;;;;5055982;28;20294;-64
2021/05/03 08:31:40;;;;;;;0.00;0.00;;;;;;;;;;5049285;28;20197;-63
2021/05/03 08:34:06;;;;;;;0.00;0.00;;;;;;;;;;5052049;28;20221;-63
2021/05/03 08:36:33;;;;;;;0.00;0.00;;;;;;;;;;5057603;28;20607;-63
2021/05/03 08:38:59;;;;;;;0.00;0.00;;;;;;;;;;5055753;28;20660;-64
2021/05/03 08:41:26;;;;;;;0.10;0.10;;;;;;;;;;5048515;28;20730;-63
2021/05/03 08:43:53;;;;;;;0.10;0.10;;;;;;;;;;5053330;28;20181;-63
2021/05/03 08:46:30;;;;;;;0.00;0.00;;;;;;;;;;5055703;28;20561;-63
2021/05/03 08:51:40;;;;;;;0.00;0.00;;;;;;;;;;5055512;28;20189;-63
2021/05/03 08:56:39;;;;;;;0.20;0.20;;;;;;;;;;5055174;28;20194;-63
2021/05/03 08:59:05;;;;;;;0.10;0.10;;;;;;;;;;5052916;28;20229;-63
2021/05/03 09:01:32;;;;;;;0.17;0.17;;;;;;;;;;5054305;28;20516;-63
2021/05/03 09:03:59;;;;;;;4.80;0.60;;;;;;;;;;5049090;28;20267;-62
2021/05/03 09:06:26;;;;;;;0.30;0.30;;;;;;;;;;5054096;28;20194;-62
2021/05/03 09:09:04;;;;;;;0.17;0.17;;;;;;;;;;5055417;28;20282;-62
2021/05/03 09:11:30;;;;;;;0.10;0.10;;;;;;;;;;5054267;28;20213;-62
2021/05/03 09:14:07;;;;;;;0.00;0.00;;;;;;;;;;5054358;28;20521;-62
2021/05/03 09:16:34;;;;;;;0.00;0.00;;;;;;;;;;5055778;28;20925;-62
2021/05/03 09:19:01;;;;;;;0.20;0.20;;;;;;;;;;5057371;28;20567;-62
2021/05/03 09:21:32;;;;;;;0.00;0.00;;;;;;;;;;5059481;28;20643;-62
2021/05/03 09:23:59;;;;;;;0.27;0.27;;;;;;;;;;5056031;28;20212;-62
2021/05/03 09:26:33;;;;;;;0.50;0.50;;;;;;;;;;5058367;28;20394;-62
2021/05/03 09:28:59;;;;;;;0.93;0.93;;;;;;;;;;5057483;28;20249;-63
2021/05/03 09:31:26;;;;;;;0.10;0.10;;;;;;;;;;5055422;28;20277;-62
2021/05/03 09:33:52;;;;;;;0.00;0.00;;;;;;;;;;5057718;28;20177;-62
2021/05/03 09:36:22;;;;;;;0.20;0.20;;;;;;;;;;5055383;28;20277;-62
2021/05/03 09:38:49;;;;;;;0.00;0.00;;;;;;;;;;5056853;28;20172;-62
2021/05/03 09:41:20;;;;;;;0.20;0.20;;;;;;;;;;5058115;28;20277;-62
2021/05/03 09:43:50;;;;;;;0.00;0.00;;;;;;;;;;5059121;28;20561;-62
2021/05/03 09:46:35;;;;;;;0.00;0.00;;;;;;;;;;5056969;28;20297;-62
2021/05/03 09:49:04;;;;;;;0.00;0.00;;;;;;;;;;5057389;28;20189;-62
2021/05/03 09:51:41;;;;;;;0.17;0.10;;;;;;;;;;5057165;28;20190;-62
2021/05/03 09:54:14;;;;;;;0.20;0.10;;;;;;;;;;5056167;28;20587;-62
2021/05/03 09:57:01;;;;;;;0.00;0.00;;;;;;;;;;5053100;28;20189;-62
2021/05/03 09:59:28;;;;;;;0.00;0.00;;;;;;;;;;5056783;28;20344;-62
2021/05/03 10:02:14;;;;;;;0.00;0.00;;;;;;;;;;5056141;28;20265;-62
2021/05/03 12:57:40;;;;;;;0.00;0.00;;;;;;;;;;5081647;28;20264;-61
2021/05/03 12:59:56;;;;;;;1.13;0.30;;;;;;;;;;5063120;28;20195;-60
2021/05/03 13:05:13;;;;;;;0.70;0.30;;;;;;;;;;5076454;28;20674;-61
2021/05/03 13:24:50;;;;;;;0.73;0.33;;;;;;;;;;5078351;28;20240;-61
2021/05/03 13:30:15;;;;;;;0.00;0.00;;;;;;;;;;5078677;28;20192;-61
2021/05/03 13:32:42;;;;;;;3.63;1.17;;;;;;;;;;5072987;28;20549;-61
2021/05/03 13:35:09;;;;;;;1.43;0.53;;;;;;;;;;5086786;28;20188;-61
2021/05/03 13:37:35;;;;;;;0.10;0.10;;;;;;;;;;5073370;28;20666;-61
2021/05/03 13:40:02;;;;;;;0.93;0.20;;;;;;;;;;5073162;28;20612;-61
2021/05/03 13:42:28;;;;;;;3.10;1.13;;;;;;;;;;5072681;28;20248;-61
2021/05/03 13:44:55;;;;;;;1.30;0.67;;;;;;;;;;5078223;28;20616;-61
2021/05/03 13:47:21;;;;;;;0.30;0.30;;;;;;;;;;5080165;28;20518;-61
2021/05/03 13:49:47;;;;;;;0.67;0.10;;;;;;;;;;5084388;28;20591;-61
2021/05/03 13:52:14;;;;;;;0.63;0.17;;;;;;;;;;5080793;28;20706;-61
2021/05/03 13:54:40;;;;;;;0.57;0.20;;;;;;;;;;5077719;28;20265;-61
2021/05/03 13:57:07;;;;;;;0.20;0.20;;;;;;;;;;5073093;28;20190;-61
2021/05/03 13:59:34;;;;;;;0.20;0.20;;;;;;;;;;5072461;28;20329;-61
2021/05/03 14:02:06;;;;;;;3.13;0.33;;;;;;;;;;5072760;28;20191;-61
2021/05/03 14:04:33;;;;;;;0.30;0.20;;;;;;;;;;5082589;28;20199;-61
2021/05/03 14:07:01;;;;;;;0.40;0.20;;;;;;;;;;5078619;28;20191;-61
2021/05/03 14:09:28;;;;;;;0.83;0.60;;;;;;;;;;5070277;28;20199;-62
2021/05/03 14:11:55;;;;;;;5.87;1.40;;;;;;;;;;5060650;28;20220;-62
2021/05/03 14:14:22;;;;;;;2.57;1.13;;;;;;;;;;5066864;28;20267;-61
2021/05/03 14:16:50;;;;;;;0.93;0.10;;;;;;;;;;5070289;28;20248;-61
2021/05/03 14:19:20;;;;;;;0.30;0.30;;;;;;;;;;5058203;28;20776;-61
2021/05/03 14:21:47;;;;;;;0.73;0.13;;;;;;;;;;5060142;28;20187;-61
2021/05/03 14:24:14;;;;;;;0.00;0.00;;;;;;;;;;5060374;28;20593;-61
2021/05/03 14:26:44;;;;;;;1.27;0.57;;;;;;;;;;5069996;28;20183;-61
2021/05/03 14:31:45;;;;;;;1.03;0.30;;;;;;;;;;5058982;28;20240;-61
2021/05/03 14:34:19;;;;;;;5.10;1.33;;;;;;;;;;5058631;28;20225;-61
2021/05/03 14:36:49;;;;;;;7.63;3.17;;;;;;;;;;5059150;28;20214;-61
2021/05/03 14:39:15;;;;;;;0.00;0.00;;;;;;;;;;5058766;28;20189;-61
2021/05/03 14:41:42;;;;;;;0.20;0.20;;;;;;;;;;5058739;28;20224;-61
2021/05/03 14:44:12;;;;;;;0.73;0.67;;;;;;;;;;5062081;28;20217;-61
2021/05/03 14:46:46;;;;;;;1.63;0.87;;;;;;;;;;5062925;28;20189;-61
2021/05/03 14:49:39;;;;;;;1.10;0.53;;;;;;;;;;5071199;28;20520;-64
2021/05/03 14:57:01;;;;;;;0.10;0.10;;;;;;;;;;5059408;28;20186;-63
2021/05/03 14:59:29;;;;;;;0.33;0.30;;;;;;;;;;5062455;28;20217;-63
2021/05/03 15:01:56;;;;;;;0.00;0.00;;;;;;;;;;5058325;28;20379;-61
2021/05/03 15:04:23;;;;;;;0.87;0.50;;;;;;;;;;5058249;28;20991;-63
2021/05/03 15:06:52;;;;;;;0.43;0.43;;;;;;;;;;5065000;28;20202;-63
2021/05/03 15:09:21;;;;;;;0.20;0.20;;;;;;;;;;5059352;28;20595;-61
2021/05/03 15:11:52;;;;;;;0.17;0.07;;;;;;;;;;5062539;28;20177;-64
2021/05/03 15:14:50;;;;;;;0.27;0.20;;;;;;;;;;5061007;28;20414;-63
2021/05/03 15:20:21;;;;;;;0.10;0.10;;;;;;;;;;5057180;28;20197;-60
2021/05/03 15:22:49;;;;;;;0.10;0.10;;;;;;;;;;5069838;28;20198;-61
2021/05/03 15:25:16;;;;;;;1.40;0.40;;;;;;;;;;5069838;28;20882;-61
2021/05/03 15:27:56;;;;;;;0.83;0.50;;;;;;;;;;5059073;28;20221;-62
2021/05/03 15:35:34;;;;;;;4.63;4.17;;;;;;;;;;5057559;28;20183;-63
2021/05/03 15:38:03;;;;;;;1.67;0.23;;;;;;;;;;5066851;28;20548;-63
2021/05/03 15:40:33;;;;;;;4.37;0.23;;;;;;;;;;5060512;28;20183;-63
2021/05/03 15:43:00;;;;;;;0.00;0.00;;;;;;;;;;5069330;28;20192;-63
2021/05/03 15:45:27;;;;;;;0.20;0.20;;;;;;;;;;5068832;28;20201;-63
2021/05/03 15:47:54;;;;;;;0.40;0.40;;;;;;;;;;5057008;28;20224;-63
2021/05/03 15:50:20;;;;;;;1.20;0.57;;;;;;;;;;5073290;28;20255;-61
2021/05/03 15:52:47;;;;;;;0.97;0.97;;;;;;;;;;5060088;28;20369;-63
2021/05/03 15:55:14;;;;;;;0.10;0.07;;;;;;;;;;5060204;28;20186;-63
2021/05/03 15:57:41;;;;;;;1.60;0.47;;;;;;;;;;5069394;28;20642;-61
2021/05/03 16:00:08;;;;;;;0.10;0.10;;;;;;;;;;5056538;28;20194;-61
2021/05/03 16:02:34;;;;;;;0.87;0.87;;;;;;;;;;5065041;28;20215;-63
2021/05/03 16:05:01;;;;;;;0.30;0.30;;;;;;;;;;5060427;28;20189;-64
2021/05/03 16:07:27;;;;;;;0.00;0.00;;;;;;;;;;5073111;28;20193;-64
2021/05/03 16:09:54;;;;;;;3.20;0.20;;;;;;;;;;5060645;28;20190;-63
2021/05/03 16:12:20;;;;;;;0.37;0.37;;;;;;;;;;5057203;28;20212;-64
2021/05/03 16:14:47;;;;;;;0.10;0.10;;;;;;;;;;5058522;28;20182;-60
2021/05/03 16:17:13;;;;;;;0.40;0.30;;;;;;;;;;5058565;28;20571;-60
2021/05/03 16:19:40;;;;;;;0.50;0.50;;;;;;;;;;5062464;28;20182;-61
2021/05/03 16:22:06;;;;;;;0.47;0.27;;;;;;;;;;5061666;28;20194;-61
2021/05/03 16:24:33;;;;;;;0.40;0.40;;;;;;;;;;5069019;28;20209;-61
2021/05/03 16:26:59;;;;;;;3.60;0.67;;;;;;;;;;5070181;28;20674;-61
2021/05/03 16:29:26;;;;;;;0.23;0.10;;;;;;;;;;5062875;28;20737;-61
2021/05/03 16:31:52;;;;;;;0.37;0.13;;;;;;;;;;5065512;28;20861;-64
2021/05/03 16:34:19;;;;;;;0.30;0.20;;;;;;;;;;5055438;28;20291;-63
2021/05/03 16:36:45;;;;;;;0.30;0.27;;;;;;;;;;5057038;28;20187;-64
2021/05/03 16:39:12;;;;;;;0.57;0.33;;;;;;;;;;5064857;28;20272;-61
2021/05/03 16:41:38;;;;;;;0.30;0.10;;;;;;;;;;5056875;28;20187;-64
2021/05/03 16:44:05;;;;;;;3.40;0.77;;;;;;;;;;5063402;28;20186;-62
2021/05/03 16:46:31;;;;;;;4.17;0.60;;;;;;;;;;5057283;28;20217;-61
2021/05/03 16:48:58;;;;;;;0.10;0.10;;;;;;;;;;5062009;28;20209;-64
2021/05/03 16:51:24;;;;;;;0.30;0.30;;;;;;;;;;5055639;28;20197;-63
2021/05/03 16:53:51;;;;;;;0.30;0.30;;;;;;;;;;5054732;28;20235;-61
2021/05/03 16:56:19;;;;;;;1.47;1.47;;;;;;;;;;5056236;28;20926;-61
2021/05/03 16:58:46;;;;;;;0.23;0.20;;;;;;;;;;5062919;28;20278;-61
2021/05/03 17:01:13;;;;;;;0.00;0.00;;;;;;;;;;5056488;28;20213;-61
2021/05/03 17:03:39;;;;;;;1.30;0.50;;;;;;;;;;5057018;28;20200;-63
2021/05/03 17:06:06;;;;;;;0.20;0.20;;;;;;;;;;5069696;28;20223;-63
2021/05/03 17:08:33;;;;;;;0.10;0.10;;;;;;;;;;5055291;28;20189;-61
2021/05/03 17:10:59;;;;;;;4.40;0.70;;;;;;;;;;5061902;28;20182;-61
2021/05/03 17:13:26;;;;;;;1.57;0.80;;;;;;;;;;5056342;28;20440;-64
2021/05/03 17:15:53;;;;;;;1.27;0.70;;;;;;;;;;5062934;28;20191;-62
2021/05/03 17:18:20;;;;;;;0.00;0.00;;;;;;;;;;5056393;28;20512;-62
2021/05/03 17:20:47;;;;;;;1.00;0.87;;;;;;;;;;5066543;28;20418;-64
2021/05/03 17:23:13;;;;;;;0.97;0.40;;;;;;;;;;5055865;28;20182;-62
2021/05/03 17:25:40;;;;;;;0.00;0.00;;;;;;;;;;5068096;28;20214;-61
2021/05/03 17:28:07;;;;;;;0.50;0.37;;;;;;;;;;5062038;28;20201;-62
2021/05/03 17:30:34;;;;;;;0.07;0.07;;;;;;;;;;5055648;28;20274;-62
2021/05/03 17:33:01;;;;;;;1.27;0.70;;;;;;;;;;5075455;28;20262;-62
2021/05/03 17:35:29;;;;;;;0.10;0.10;;;;;;;;;;5075663;28;20192;-61
2021/05/03 17:37:55;;;;;;;0.20;0.20;;;;;;;;;;5069065;28;20622;-61
2021/05/03 17:40:23;;;;;;;0.40;0.33;;;;;;;;;;5058472;28;20458;-62
2021/05/03 17:42:49;;;;;;;0.30;0.30;;;;;;;;;;5077584;28;20685;-61
2021/05/03 17:45:16;;;;;;;0.60;0.43;;;;;;;;;;5073680;28;20250;-64
2021/05/03 17:47:43;;;;;;;0.00;0.00;;;;;;;;;;5065886;28;20185;-61
2021/05/03 17:50:10;;;;;;;0.67;0.13;;;;;;;;;;5059826;28;20195;-61
2021/05/03 17:52:36;;;;;;;0.30;0.20;;;;;;;;;;5066334;28;20238;-61
2021/05/03 17:55:06;;;;;;;0.10;0.10;;;;;;;;;;5066114;28;20301;-61
2021/05/03 17:57:33;;;;;;;0.73;0.47;;;;;;;;;;5078249;28;20563;-61
2021/05/03 17:59:59;;;;;;;3.50;0.80;;;;;;;;;;5064164;28;20186;-61
2021/05/03 18:02:26;;;;;;;0.30;0.30;;;;;;;;;;5059686;28;20189;-61
2021/05/03 18:04:52;;;;;;;0.60;0.60;;;;;;;;;;5078101;28;20592;-63
2021/05/03 18:07:21;;;;;;;0.60;0.60;;;;;;;;;;5066191;28;20196;-64
2021/05/03 18:09:49;;;;;;;2.23;0.33;;;;;;;;;;5065457;28;20236;-63
2021/05/03 18:12:15;;;;;;;0.13;0.13;;;;;;;;;;5071115;28;20247;-63
2021/05/03 18:14:45;;;;;;;0.20;0.20;;;;;;;;;;5059247;28;20292;-63
2021/05/03 18:17:11;;;;;;;1.60;0.30;;;;;;;;;;5063722;28;20187;-63
2021/05/03 18:19:38;;;;;;;1.17;1.07;;;;;;;;;;5063306;28;20174;-63
2021/05/03 18:22:07;;;;;;;0.00;0.00;;;;;;;;;;5061892;28;20193;-63
2021/05/03 18:24:33;;;;;;;0.20;0.10;;;;;;;;;;5065332;28;20360;-64
2021/05/03 18:27:03;;;;;;;0.87;0.87;;;;;;;;;;5067923;28;20266;-63
2021/05/03 18:29:31;;;;;;;0.13;0.13;;;;;;;;;;5058756;28;20863;-64
2021/05/03 18:31:58;;;;;;;0.40;0.20;;;;;;;;;;5059531;28;20269;-62
2021/05/03 18:34:24;;;;;;;5.33;0.70;;;;;;;;;;5075968;28;20193;-63
2021/05/03 18:36:51;;;;;;;0.40;0.30;;;;;;;;;;5067253;28;20507;-65
2021/05/03 18:39:26;;;;;;;3.70;0.20;;;;;;;;;;5064861;28;20249;-64